createdAt,value
2022-08-10T00:01:52.139Z,93.00
2022-08-10T00:04:22.336Z,92.80
2022-08-10T00:06:52.944Z,93.10
2022-08-10T00:09:22.971Z,93.10
2022-08-10T00:11:51.553Z,92.80
2022-08-10T00:14:20.073Z,93.20
2022-08-10T00:16:48.750Z,93.70
2022-08-10T00:19:17.454Z,93.90
2022-08-10T00:24:16.598Z,94.10
2022-08-10T00:28:01.164Z,94.20
2022-08-10T00:29:38.730Z,94.50
2022-08-10T00:32:07.645Z,95.00
2022-08-10T00:34:36.264Z,95.00
2022-08-10T00:37:04.817Z,95.30
2022-08-10T00:39:35.951Z,94.90
2022-08-10T00:42:09.119Z,95.10
2022-08-10T00:44:39.466Z,95.50
2022-08-10T00:47:15.318Z,95.70
2022-08-10T00:49:58.726Z,96.30
2022-08-10T00:52:30.807Z,96.30
2022-08-10T00:55:00.098Z,95.90
2022-08-10T00:57:30.142Z,96.60
2022-08-10T01:00:00.293Z,96.80
2022-08-10T01:02:32.289Z,97.10
2022-08-10T01:05:05.060Z,97.10
2022-08-10T01:07:56.706Z,97.40
2022-08-10T01:10:55.962Z,97.20
2022-08-10T01:13:37.128Z,98.00
2022-08-10T01:16:15.157Z,97.40
2022-08-10T01:18:54.485Z,98.10
2022-08-10T01:22:12.431Z,98.80
2022-08-10T01:25:20.700Z,98.60
2022-08-10T01:28:05.743Z,98.50
2022-08-10T01:30:37.353Z,97.90
2022-08-10T01:33:13.028Z,98.90
2022-08-10T01:35:53.047Z,99.10
2022-08-10T01:38:28.905Z,99.40
2022-08-10T01:41:06.397Z,99.60
2022-08-10T01:43:42.298Z,99.70
2022-08-10T01:46:16.558Z,99.10
2022-08-10T01:48:51.232Z,99.70
2022-08-10T01:51:27.464Z,99.90
2022-08-10T01:54:01.529Z,99.90
2022-08-10T01:56:34.547Z,99.90
2022-08-10T01:59:10.350Z,99.90
2022-08-10T02:01:47.804Z,99.90
2022-08-10T02:04:20.679Z,99.90
2022-08-10T02:06:54.239Z,99.90
2022-08-10T02:09:28.103Z,99.90
2022-08-10T02:12:08.594Z,99.90
2022-08-10T02:14:44.343Z,99.90
2022-08-10T02:17:58.463Z,99.90
2022-08-10T02:20:16.488Z,99.90
2022-08-10T02:22:48.984Z,99.90
2022-08-10T02:25:42.642Z,99.90
2022-08-10T02:28:11.066Z,99.90
2022-08-10T02:30:40.736Z,99.90
2022-08-10T02:33:13.480Z,99.90
2022-08-10T02:35:55.002Z,99.90
2022-08-10T02:38:58.557Z,99.90
2022-08-10T02:42:18.826Z,99.90
2022-08-10T02:45:16.001Z,99.90
2022-08-10T02:47:27.492Z,99.90
2022-08-10T02:50:07.512Z,99.90
2022-08-10T02:52:45.455Z,99.90
2022-08-10T02:55:27.074Z,99.90
2022-08-10T02:58:12.730Z,99.40
2022-08-10T03:00:51.006Z,98.90
2022-08-10T03:03:24.691Z,99.30
2022-08-10T03:06:01.520Z,99.90
2022-08-10T03:08:37.408Z,99.90
2022-08-10T03:11:09.698Z,99.50
2022-08-10T03:13:39.068Z,99.90
2022-08-10T03:16:10.949Z,99.90
2022-08-10T03:18:41.420Z,99.90
2022-08-10T03:21:12.326Z,99.90
2022-08-10T03:23:44.838Z,99.90
2022-08-10T03:26:20.314Z,99.90
2022-08-10T03:28:50.196Z,99.90
2022-08-10T03:31:19.653Z,99.60
2022-08-10T03:33:49.575Z,99.50
2022-08-10T03:36:40.709Z,99.60
2022-08-10T03:39:07.872Z,99.90
2022-08-10T03:41:42.077Z,99.90
2022-08-10T03:44:30.990Z,99.90
2022-08-10T03:47:02.120Z,99.80
2022-08-10T03:49:33.028Z,99.90
2022-08-10T03:52:03.166Z,99.80
2022-08-10T03:54:31.646Z,99.70
2022-08-10T03:57:00.311Z,99.70
2022-08-10T03:59:31.392Z,99.90
2022-08-10T04:02:43.755Z,99.90
2022-08-10T04:04:50.501Z,99.90
2022-08-10T04:07:20.439Z,99.90
2022-08-10T04:09:58.940Z,99.80
2022-08-10T04:12:27.434Z,99.70
2022-08-10T04:14:55.855Z,99.30
2022-08-10T04:18:01.236Z,99.70
2022-08-10T04:20:20.849Z,99.80
2022-08-10T04:22:57.025Z,99.80
2022-08-10T04:25:29.435Z,99.40
2022-08-10T04:27:59.594Z,99.00
2022-08-10T04:30:31.090Z,99.10
2022-08-10T04:33:03.249Z,99.00
2022-08-10T04:35:34.277Z,98.90
2022-08-10T04:38:06.752Z,99.30
2022-08-10T04:40:35.282Z,99.30
2022-08-10T04:43:12.935Z,99.40
2022-08-10T04:45:48.750Z,98.90
2022-08-10T04:48:39.900Z,98.60
2022-08-10T04:51:17.147Z,99.70
2022-08-10T04:54:04.778Z,99.00
2022-08-10T04:56:37.485Z,98.80
2022-08-10T04:59:07.742Z,99.00
2022-08-10T05:02:09.822Z,97.80
2022-08-10T05:07:09.523Z,97.30
2022-08-10T05:10:03.402Z,97.40
2022-08-10T05:12:29.432Z,98.60
2022-08-10T05:14:58.402Z,97.30
2022-08-10T05:17:27.619Z,97.90
2022-08-10T05:20:03.805Z,97.20
2022-08-10T05:22:36.407Z,97.50
2022-08-10T05:25:09.395Z,97.00
2022-08-10T05:27:38.606Z,97.50
2022-08-10T05:30:09.748Z,95.90
2022-08-10T05:32:56.658Z,96.20
2022-08-10T05:35:27.998Z,97.40
2022-08-10T05:38:13.195Z,97.00
2022-08-10T05:40:47.093Z,96.20
2022-08-10T05:43:18.988Z,95.90
2022-08-10T05:46:18.432Z,94.90
2022-08-10T05:48:54.415Z,94.90
2022-08-10T05:51:26.942Z,93.70
2022-08-10T05:54:01.649Z,94.90
2022-08-10T05:56:53.450Z,94.10
2022-08-10T06:00:10.885Z,92.70
2022-08-10T06:02:30.659Z,92.70
2022-08-10T06:05:12.628Z,91.80
2022-08-10T06:07:46.126Z,92.20
2022-08-10T06:10:31.600Z,91.60
2022-08-10T06:13:30.379Z,90.40
2022-08-10T06:16:07.434Z,90.30
2022-08-10T06:18:37.656Z,86.90
2022-08-10T06:21:07.094Z,90.10
2022-08-10T06:23:37.102Z,85.40
2022-08-10T06:26:11.843Z,85.00
2022-08-10T06:31:47.510Z,83.80
2022-08-10T06:34:23.672Z,81.10
2022-08-10T06:36:54.228Z,80.50
2022-08-10T06:39:33.684Z,82.50
2022-08-10T06:42:16.243Z,78.90
2022-08-10T06:45:01.777Z,79.70
2022-08-10T06:47:40.444Z,77.50
2022-08-10T06:50:34.834Z,79.10
2022-08-10T06:53:13.288Z,78.10
2022-08-10T06:55:55.109Z,76.10
2022-08-10T06:58:30.115Z,76.20
2022-08-10T07:01:04.908Z,74.60
2022-08-10T07:03:43.424Z,78.30
2022-08-10T07:06:15.372Z,77.10
2022-08-10T07:08:46.144Z,75.30
2022-08-10T07:11:16.492Z,73.40
2022-08-10T07:14:15.767Z,73.00
2022-08-10T07:16:42.564Z,72.60
2022-08-10T07:19:12.871Z,76.30
2022-08-10T07:21:45.131Z,72.20
2022-08-10T07:24:16.888Z,73.20
2022-08-10T07:26:49.838Z,70.60
2022-08-10T07:29:26.671Z,70.00
2022-08-10T07:32:15.133Z,72.70
2022-08-10T07:34:48.006Z,75.50
2022-08-10T07:37:18.767Z,70.60
2022-08-10T07:39:58.509Z,70.20
2022-08-10T07:42:34.886Z,68.60
2022-08-10T07:45:05.190Z,69.30
2022-08-10T07:47:52.758Z,68.40
2022-08-10T07:50:26.342Z,69.10
2022-08-10T07:53:00.681Z,69.50
2022-08-10T07:56:05.412Z,72.50
2022-08-10T08:00:53.274Z,71.30
2022-08-10T08:03:28.172Z,65.90
2022-08-10T08:06:03.203Z,70.40
2022-08-10T08:08:39.043Z,66.50
2022-08-10T08:11:08.982Z,67.40
2022-08-10T08:13:40.389Z,67.10
2022-08-10T08:16:19.829Z,62.60
2022-08-10T08:19:26.891Z,64.10
2022-08-10T08:24:07.661Z,65.70
2022-08-10T08:24:37.970Z,61.90
2022-08-10T08:27:07.736Z,62.70
2022-08-10T08:29:40.161Z,63.20
2022-08-10T08:32:09.487Z,62.50
2022-08-10T08:34:43.479Z,62.20
2022-08-10T08:38:29.640Z,63.40
2022-08-10T08:40:10.383Z,60.00
2022-08-10T08:43:14.266Z,60.70
2022-08-10T08:46:28.726Z,61.10
2022-08-10T08:50:07.724Z,60.50
2022-08-10T08:52:39.971Z,58.80
2022-08-10T08:56:03.963Z,59.30
2022-08-10T08:58:45.052Z,59.10
2022-08-10T09:01:40.301Z,58.20
2022-08-10T09:04:42.842Z,59.20
2022-08-10T09:08:01.189Z,57.00
2022-08-10T09:10:51.275Z,57.70
2022-08-10T09:13:29.460Z,55.30
2022-08-10T09:16:15.376Z,56.80
2022-08-10T09:18:53.401Z,55.60
2022-08-10T09:21:34.515Z,56.20
2022-08-10T09:24:28.347Z,55.70
2022-08-10T09:27:02.063Z,56.00
2022-08-10T09:29:37.613Z,52.70
2022-08-10T09:36:14.793Z,53.30
2022-08-10T09:36:21.605Z,56.50
2022-08-10T09:38:24.563Z,52.40
2022-08-10T09:41:13.485Z,53.50
2022-08-10T09:44:07.241Z,55.20
2022-08-10T09:47:00.805Z,55.60
2022-08-10T09:49:58.727Z,53.70
2022-08-10T09:52:44.910Z,51.80
2022-08-10T09:55:21.588Z,53.10
2022-08-10T09:58:13.551Z,51.80
2022-08-10T10:00:53.175Z,51.80
2022-08-10T10:03:32.806Z,51.70
2022-08-10T10:06:11.657Z,54.40
2022-08-10T10:09:10.201Z,49.20
2022-08-10T10:12:07.030Z,51.80
2022-08-10T10:15:24.722Z,51.60
2022-08-10T10:18:40.221Z,52.20
2022-08-10T10:21:24.240Z,50.20
2022-08-10T10:24:22.782Z,51.70
2022-08-10T10:26:59.081Z,48.70
2022-08-10T10:29:58.671Z,47.50
2022-08-10T10:32:42.431Z,48.30
2022-08-10T10:35:24.472Z,47.80
2022-08-10T10:38:00.780Z,48.80
2022-08-10T10:40:50.530Z,47.90
2022-08-10T10:43:41.010Z,46.80
2022-08-10T10:46:25.559Z,51.00
2022-08-10T10:49:08.107Z,46.50
2022-08-10T10:51:49.250Z,50.00
2022-08-10T10:54:29.251Z,47.30
2022-08-10T10:57:11.088Z,46.60
2022-08-10T10:59:56.476Z,47.50
2022-08-10T11:02:50.870Z,48.60
2022-08-10T11:05:37.056Z,46.20
2022-08-10T11:08:14.654Z,49.30
2022-08-10T11:10:52.872Z,45.20
2022-08-10T11:14:24.896Z,43.90
2022-08-10T11:16:36.690Z,45.40
2022-08-10T11:19:19.188Z,45.30
2022-08-10T11:22:04.414Z,44.00
2022-08-10T11:24:50.257Z,44.00
2022-08-10T11:27:32.916Z,46.80
2022-08-10T11:30:07.494Z,43.40
2022-08-10T11:32:48.275Z,42.10
2022-08-10T11:35:34.749Z,42.00
2022-08-10T11:38:32.770Z,43.80
2022-08-10T11:42:09.257Z,42.10
2022-08-10T11:44:22.079Z,42.10
2022-08-10T11:47:02.207Z,40.00
2022-08-10T11:49:36.767Z,41.00
2022-08-10T11:52:16.271Z,42.80
2022-08-10T11:54:54.137Z,41.90
2022-08-10T11:57:54.351Z,43.20
2022-08-10T12:00:18.882Z,42.30
2022-08-10T12:02:53.564Z,41.70
2022-08-10T12:05:51.552Z,43.50
2022-08-10T12:10:06.916Z,44.20
2022-08-10T12:11:17.176Z,40.90
2022-08-10T12:14:21.871Z,42.50
2022-08-10T12:17:03.101Z,43.40
2022-08-10T12:20:02.834Z,41.00
2022-08-10T12:22:39.603Z,41.30
2022-08-10T12:25:55.566Z,43.50
2022-08-10T12:28:15.463Z,42.70
2022-08-10T12:30:53.015Z,44.70
2022-08-10T12:33:26.317Z,46.40
2022-08-10T12:36:18.435Z,47.40
2022-08-10T12:39:02.914Z,46.60
2022-08-10T12:41:44.663Z,45.70
2022-08-10T12:44:22.666Z,45.40
2022-08-10T12:46:59.637Z,45.20
2022-08-10T12:49:35.314Z,45.10
2022-08-10T12:52:15.740Z,46.40
2022-08-10T12:54:47.783Z,47.10
2022-08-10T12:57:22.636Z,46.20
2022-08-10T12:59:55.867Z,47.80
2022-08-10T13:02:28.953Z,48.60
2022-08-10T13:08:24.814Z,45.20
2022-08-10T13:10:24.676Z,43.20
2022-08-10T13:15:49.183Z,43.50
2022-08-10T13:18:27.510Z,44.20
2022-08-10T13:21:03.830Z,45.40
2022-08-10T13:24:04.933Z,42.70
2022-08-10T13:29:36.062Z,45.30
2022-08-10T13:32:10.292Z,43.30
2022-08-10T13:34:46.315Z,43.70
2022-08-10T13:37:21.135Z,42.60
2022-08-10T13:39:58.811Z,44.00
2022-08-10T13:42:33.190Z,46.30
2022-08-10T13:45:11.106Z,47.70
2022-08-10T13:47:48.773Z,44.70
2022-08-10T13:50:33.595Z,45.00
2022-08-10T13:53:11.620Z,45.20
2022-08-10T13:55:53.905Z,47.30
2022-08-10T13:58:32.104Z,47.70
2022-08-10T14:03:42.262Z,47.80
2022-08-10T14:06:15.531Z,47.10
2022-08-10T14:08:51.709Z,45.70
2022-08-10T14:11:22.882Z,47.00
2022-08-10T14:13:57.600Z,45.40
2022-08-10T14:16:29.195Z,45.20
2022-08-10T14:19:04.547Z,42.50
2022-08-10T14:21:40.067Z,44.70
2022-08-10T14:24:24.866Z,43.30
2022-08-10T14:27:03.502Z,43.10
2022-08-10T14:29:34.243Z,44.60
2022-08-10T14:32:10.348Z,43.40
2022-08-10T14:36:16.074Z,43.60
2022-08-10T14:37:38.844Z,43.40
2022-08-10T14:42:48.118Z,44.50
2022-08-10T14:45:25.712Z,43.40
2022-08-10T14:48:06.737Z,43.10
2022-08-10T14:50:36.862Z,43.30
2022-08-10T14:53:10.885Z,42.80
2022-08-10T14:55:57.685Z,42.80
2022-08-10T14:58:34.036Z,42.10
2022-08-10T15:01:05.511Z,42.60
2022-08-10T15:04:00.904Z,43.10
2022-08-10T15:06:37.727Z,42.50
2022-08-10T15:09:19.272Z,43.20
2022-08-10T15:12:14.170Z,44.50
2022-08-10T15:14:44.717Z,43.60
2022-08-10T15:17:17.338Z,43.60
2022-08-10T15:20:02.600Z,44.00
2022-08-10T15:22:45.317Z,43.00
2022-08-10T15:25:19.195Z,43.90
2022-08-10T15:27:58.033Z,44.20
2022-08-10T15:30:42.840Z,43.10
2022-08-10T15:34:03.750Z,43.00
2022-08-10T15:40:21.920Z,43.10
2022-08-10T15:42:23.309Z,42.60
2022-08-10T15:44:55.042Z,41.90
2022-08-10T15:47:45.743Z,42.70
2022-08-10T15:53:02.756Z,44.10
2022-08-10T15:55:43.614Z,43.60
2022-08-10T15:58:38.824Z,45.60
2022-08-10T16:02:13.112Z,44.40
2022-08-10T16:04:09.108Z,44.50
2022-08-10T16:06:44.652Z,46.40
2022-08-10T16:10:24.455Z,45.40
2022-08-10T16:12:29.995Z,46.20
2022-08-10T16:15:08.051Z,45.30
2022-08-10T16:17:54.875Z,44.80
2022-08-10T16:23:04.950Z,45.50
2022-08-10T16:25:48.194Z,46.60
2022-08-10T16:28:23.970Z,44.80
2022-08-10T16:30:57.889Z,43.60
2022-08-10T16:36:21.815Z,44.10
2022-08-10T16:38:53.005Z,44.30
2022-08-10T16:42:03.125Z,45.60
2022-08-10T16:44:27.172Z,45.20
2022-08-10T16:46:57.848Z,45.40
2022-08-10T16:49:28.167Z,45.90
2022-08-10T16:51:58.724Z,46.00
2022-08-10T16:57:04.685Z,44.80
2022-08-10T16:59:38.746Z,45.40
2022-08-10T17:02:14.493Z,45.70
2022-08-10T17:07:19.182Z,47.20
2022-08-10T17:12:31.539Z,46.60
2022-08-10T17:17:45.953Z,47.60
2022-08-10T17:20:30.953Z,46.50
2022-08-10T17:23:06.815Z,46.70
2022-08-10T17:25:48.812Z,47.80
2022-08-10T17:28:34.761Z,46.50
2022-08-10T17:31:38.913Z,46.80
2022-08-10T17:34:12.233Z,47.10
2022-08-10T17:36:43.801Z,47.60
2022-08-10T17:39:16.410Z,47.50
2022-08-10T17:41:53.135Z,47.80
2022-08-10T17:44:24.490Z,47.60
2022-08-10T17:46:55.241Z,48.60
2022-08-10T17:49:27.085Z,47.90
2022-08-10T17:54:34.132Z,49.10
2022-08-10T18:00:08.003Z,50.60
2022-08-10T18:17:43.817Z,52.20
2022-08-10T18:20:20.032Z,51.30
2022-08-10T18:23:03.817Z,52.40
2022-08-10T18:25:38.419Z,53.30
2022-08-10T18:33:40.762Z,53.40
2022-08-10T18:36:15.811Z,55.50
2022-08-10T18:38:51.998Z,54.20
2022-08-10T18:41:29.742Z,55.70
2022-08-10T18:44:12.855Z,56.10
2022-08-10T18:46:54.992Z,56.60
2022-08-10T18:49:33.834Z,55.80
2022-08-10T18:52:10.464Z,56.20
2022-08-10T18:55:04.687Z,56.50
2022-08-10T18:58:28.615Z,56.50
2022-08-10T19:01:43.178Z,56.30
2022-08-10T19:04:37.868Z,56.70
2022-08-10T19:07:31.782Z,57.20
2022-08-10T19:10:55.924Z,58.40
2022-08-10T19:13:38.302Z,58.50
2022-08-10T19:16:19.504Z,58.90
2022-08-10T19:19:23.283Z,59.50
2022-08-10T19:22:03.948Z,59.20
2022-08-10T19:24:53.358Z,60.30
2022-08-10T19:27:41.846Z,60.70
2022-08-10T19:30:15.779Z,60.20
2022-08-10T19:36:46.358Z,61.80
2022-08-10T19:39:29.232Z,62.30
2022-08-10T19:42:11.664Z,62.40
2022-08-10T19:44:53.119Z,62.30
2022-08-10T19:47:33.710Z,63.00
2022-08-10T19:50:09.614Z,62.70
2022-08-10T19:52:51.649Z,62.80
2022-08-10T19:55:35.041Z,62.90
2022-08-10T19:58:17.515Z,62.80
2022-08-10T20:01:00.566Z,63.70
2022-08-10T20:03:49.929Z,64.40
2022-08-10T20:06:27.714Z,62.60
2022-08-10T20:09:07.691Z,64.70
2022-08-10T20:11:49.102Z,64.60
2022-08-10T20:14:28.784Z,64.70
2022-08-10T20:17:51.696Z,65.00
2022-08-10T20:23:56.230Z,66.20
2022-08-10T20:26:35.996Z,66.10
2022-08-10T20:29:57.417Z,66.20
2022-08-10T20:32:26.124Z,66.70
2022-08-10T20:35:08.108Z,66.00
2022-08-10T20:38:03.819Z,66.50
2022-08-10T20:40:47.535Z,67.20
2022-08-10T20:43:34.426Z,67.30
2022-08-10T20:46:19.144Z,67.00
2022-08-10T20:49:16.993Z,67.30
2022-08-10T20:52:12.394Z,67.90
2022-08-10T20:54:51.123Z,67.80
2022-08-10T20:58:04.334Z,68.40
2022-08-10T21:00:52.284Z,68.20
2022-08-10T21:03:45.744Z,68.70
2022-08-10T21:06:43.889Z,68.20
2022-08-10T21:09:57.158Z,68.20
2022-08-10T21:12:57.801Z,69.20
2022-08-10T21:15:56.615Z,70.10
2022-08-10T21:18:46.803Z,69.30
2022-08-10T21:22:05.254Z,70.20
2022-08-10T21:24:47.617Z,70.00
2022-08-10T21:27:48.730Z,70.50
2022-08-10T21:30:23.759Z,70.90
2022-08-10T21:32:59.699Z,70.60
2022-08-10T21:35:40.972Z,71.20
2022-08-10T21:38:26.574Z,71.60
2022-08-10T21:41:56.548Z,72.10
2022-08-10T21:45:10.484Z,72.40
2022-08-10T21:48:18.506Z,72.40
2022-08-10T21:51:16.266Z,72.70
2022-08-10T21:54:25.938Z,71.30
2022-08-10T21:57:25.966Z,72.10
2022-08-10T22:00:22.331Z,71.70
2022-08-10T22:03:11.206Z,72.50
2022-08-10T22:05:59.849Z,72.30
2022-08-10T22:08:56.470Z,72.90
2022-08-10T22:11:50.967Z,72.60
2022-08-10T22:14:45.865Z,71.70
2022-08-10T22:18:03.341Z,72.20
2022-08-10T22:20:49.730Z,72.70
2022-08-10T22:24:16.911Z,73.30
2022-08-10T22:27:46.217Z,72.70
2022-08-10T22:30:36.935Z,73.40
2022-08-10T22:33:44.221Z,73.50
2022-08-10T22:37:16.819Z,73.20
2022-08-10T22:40:19.050Z,73.90
2022-08-10T22:43:11.823Z,74.80
2022-08-10T22:46:09.035Z,74.90
2022-08-10T22:48:59.525Z,75.40
2022-08-10T22:51:40.288Z,75.80
2022-08-10T22:54:39.595Z,75.10
2022-08-10T22:57:31.330Z,75.60
2022-08-10T23:00:14.357Z,75.80
2022-08-10T23:02:53.228Z,77.20
2022-08-10T23:05:32.297Z,77.10
2022-08-10T23:08:09.723Z,77.00
2022-08-10T23:10:44.390Z,78.00
2022-08-10T23:13:35.678Z,77.10
2022-08-10T23:16:39.375Z,77.80
2022-08-10T23:19:17.109Z,78.50
2022-08-10T23:22:04.866Z,80.40
2022-08-10T23:24:38.819Z,79.10
2022-08-10T23:27:37.882Z,78.80
2022-08-10T23:30:10.779Z,80.10
2022-08-10T23:32:47.141Z,80.20
2022-08-10T23:36:31.402Z,80.50
2022-08-10T23:38:08.499Z,81.10
2022-08-10T23:40:38.514Z,80.20
2022-08-10T23:43:08.581Z,81.00
2022-08-10T23:45:52.766Z,79.80
2022-08-10T23:48:29.574Z,80.70
2022-08-10T23:51:02.234Z,80.70
2022-08-10T23:53:36.304Z,81.30
2022-08-10T23:56:11.538Z,83.70
2022-08-10T23:58:45.342Z,82.80
